FBSK/GBE METAR and TAF weather

Enter ICAO airport designator
Station Type Date Time Source
FBSK METAR 2020/09/22 17:00 UTC NOAA

FBSK 221700Z 08012KT CAVOK 19/08 Q1026 NOSIG


Station Type Date Time Source
FBSK Decoded METAR 2020/09/22 17:00 UTC NOAA

Seretse Khama International Airport, Botswana (FBSK) 24-13S 025-55E 1005M
Sep 22, 2020 - 01:00 PM EDT / 2020.09.22 1700 UTC
Wind: from the E (080 degrees) at 14 MPH (12 KT):0
Visibility: greater than 7 mile(s):0
Temperature: 66 F (19 C)
Dew Point: 46 F (8 C)
Relative Humidity: 48%
Pressure (altimeter): 30.30 in. Hg (1026 hPa)
ob: FBSK 221700Z 08012KT CAVOK 19/08 Q1026 NOSIG
cycle: 17

Station Type Date Time Source
FBSK TAF 2020/09/22 18:17 UTC NOAA

TAF FBSK 221500Z 2218/2324 06015KT CAVOK
BECMG 2303/2303 SCT025

Example: see airport list